createdAt,value
2017-07-03T00:00:18.521Z,19.02
2017-07-03T00:00:59.007Z,19
2017-07-03T00:01:39.526Z,19
2017-07-03T00:02:20.056Z,19.04
2017-07-03T00:03:00.554Z,18.98
2017-07-03T00:03:41.065Z,19
2017-07-03T00:04:21.557Z,18.94
2017-07-03T00:05:02.092Z,18.99
2017-07-03T00:05:42.815Z,18.98
2017-07-03T00:06:23.300Z,19.04
2017-07-03T00:07:03.753Z,18.99
2017-07-03T00:07:44.277Z,18.94
2017-07-03T00:08:24.777Z,19.13
2017-07-03T00:09:05.272Z,19
2017-07-03T00:09:45.759Z,19.08
2017-07-03T00:10:26.263Z,19.02
2017-07-03T00:11:06.768Z,19.08
2017-07-03T00:11:47.306Z,19.11
2017-07-03T00:12:27.832Z,19.11
2017-07-03T00:13:08.317Z,19.07
2017-07-03T00:13:48.847Z,19.1
2017-07-03T00:14:29.354Z,19.13
2017-07-03T00:15:09.812Z,19.16
2017-07-03T00:15:50.372Z,19.18
2017-07-03T00:16:30.849Z,19.21
2017-07-03T00:17:11.321Z,19.08
2017-07-03T00:17:51.823Z,19.07
2017-07-03T00:18:32.308Z,19.08
2017-07-03T00:19:12.815Z,19.06
2017-07-03T00:19:53.298Z,19.07
2017-07-03T00:20:33.824Z,19.04
2017-07-03T00:21:14.307Z,19.02
2017-07-03T00:21:54.809Z,19.04
2017-07-03T00:22:35.297Z,19.04
2017-07-03T00:23:15.803Z,19.07
2017-07-03T00:23:56.305Z,19.11
2017-07-03T00:24:36.825Z,19.14
2017-07-03T00:25:17.366Z,19.16
2017-07-03T00:25:57.850Z,19.21
2017-07-03T00:26:38.362Z,19.29
2017-07-03T00:27:18.986Z,19.16
2017-07-03T00:27:59.464Z,19.14
2017-07-03T00:28:39.952Z,19.11
2017-07-03T00:29:20.575Z,19.26
2017-07-03T00:30:01.059Z,19.28
2017-07-03T00:30:41.543Z,19.23
2017-07-03T00:31:22.082Z,19.28
2017-07-03T00:32:02.556Z,19.28
2017-07-03T00:32:43.068Z,19.22
2017-07-03T00:33:23.504Z,19.22
2017-07-03T00:34:04.022Z,19.25
2017-07-03T00:34:44.526Z,19.13
2017-07-03T00:35:25.003Z,19.19
2017-07-03T00:36:05.520Z,19.14
2017-07-03T00:36:46.027Z,19.1
2017-07-03T00:37:26.484Z,19.08
2017-07-03T00:38:07.006Z,19.1
2017-07-03T00:38:47.475Z,19.08
2017-07-03T00:39:27.942Z,19.04
2017-07-03T00:40:08.575Z,19.04
2017-07-03T00:40:49.076Z,19.08
2017-07-03T00:41:29.567Z,19.04
2017-07-03T00:42:10.061Z,18.98
2017-07-03T00:42:50.612Z,18.95
2017-07-03T00:43:31.097Z,19.07
2017-07-03T00:44:11.550Z,19.04
2017-07-03T00:44:52.025Z,19.06
2017-07-03T00:45:32.498Z,18.95
2017-07-03T00:46:12.987Z,18.99
2017-07-03T00:46:53.548Z,19.08
2017-07-03T00:47:34.179Z,19
2017-07-03T00:48:14.584Z,19.07
2017-07-03T00:48:55.094Z,19.07
2017-07-03T00:49:36.406Z,19
2017-07-03T00:50:16.894Z,19.04
2017-07-03T00:50:57.412Z,18.94
2017-07-03T00:51:37.919Z,18.9
2017-07-03T00:52:18.385Z,18.81
2017-07-03T00:52:58.916Z,18.78
2017-07-03T00:53:39.435Z,18.91
2017-07-03T00:54:19.934Z,19.02
2017-07-03T00:55:00.529Z,18.95
2017-07-03T00:55:40.980Z,18.91
2017-07-03T00:56:21.489Z,18.99
2017-07-03T00:57:01.994Z,18.91
2017-07-03T00:57:42.480Z,18.9
2017-07-03T00:58:23.033Z,18.92
2017-07-03T00:59:03.483Z,18.95
2017-07-03T00:59:44.019Z,19.02
2017-07-03T01:00:24.545Z,19
2017-07-03T01:01:04.982Z,18.99
2017-07-03T01:01:45.497Z,19
2017-07-03T01:02:26.067Z,19
2017-07-03T01:03:06.526Z,18.92
2017-07-03T01:03:47.027Z,19
2017-07-03T01:04:27.501Z,18.94
2017-07-03T01:05:07.959Z,19.06
2017-07-03T01:05:48.489Z,18.95
2017-07-03T01:06:28.934Z,18.91
2017-07-03T01:07:09.470Z,18.85
2017-07-03T01:07:49.945Z,18.88
2017-07-03T01:08:30.497Z,18.98
2017-07-03T01:09:10.993Z,19.04
2017-07-03T01:09:51.448Z,18.95
2017-07-03T01:10:31.956Z,19.04
2017-07-03T01:11:12.475Z,19.11
2017-07-03T01:11:52.977Z,18.98
2017-07-03T01:12:33.492Z,19.02
2017-07-03T01:13:13.982Z,19.07
2017-07-03T01:13:54.437Z,18.98
2017-07-03T01:14:34.979Z,19
2017-07-03T01:15:15.487Z,18.98
2017-07-03T01:15:55.958Z,18.94
2017-07-03T01:16:36.481Z,18.99
2017-07-03T01:17:16.987Z,18.99
2017-07-03T01:17:57.481Z,19
2017-07-03T01:18:37.992Z,19.02
2017-07-03T01:19:18.481Z,18.99
2017-07-03T01:19:58.973Z,19.08
2017-07-03T01:20:39.439Z,18.94
2017-07-03T01:21:19.980Z,18.98
2017-07-03T01:22:00.468Z,18.9
2017-07-03T01:22:40.945Z,18.87
2017-07-03T01:23:21.473Z,18.91
2017-07-03T01:24:01.947Z,18.98
2017-07-03T01:24:42.462Z,18.98
2017-07-03T01:25:23.041Z,19.02
2017-07-03T01:26:03.504Z,19.08
2017-07-03T01:26:43.949Z,18.99
2017-07-03T01:27:24.466Z,19.02
2017-07-03T01:28:04.967Z,19.08
2017-07-03T01:28:45.459Z,18.99
2017-07-03T01:29:25.927Z,19
2017-07-03T01:30:06.438Z,18.94
2017-07-03T01:30:46.934Z,18.94
2017-07-03T01:31:27.427Z,18.92
2017-07-03T01:32:07.879Z,18.9
2017-07-03T01:32:48.370Z,18.92
2017-07-03T01:33:28.881Z,18.92
2017-07-03T01:34:09.538Z,18.98
2017-07-03T01:34:50.069Z,18.99
2017-07-03T01:35:30.544Z,18.94
2017-07-03T01:36:11.085Z,18.98
2017-07-03T01:36:51.544Z,19.02
2017-07-03T01:37:32.031Z,19.04
2017-07-03T01:38:12.578Z,19.06
2017-07-03T01:38:53.080Z,19.1
2017-07-03T01:39:33.652Z,19.16
2017-07-03T01:40:14.086Z,19.22
2017-07-03T01:40:54.614Z,19.23
2017-07-03T01:41:35.134Z,19.21
2017-07-03T01:42:15.592Z,19.23
2017-07-03T01:42:56.088Z,19.28
2017-07-03T01:43:36.605Z,19.22
2017-07-03T01:44:17.080Z,19.13
2017-07-03T01:44:57.599Z,19.16
2017-07-03T01:45:38.091Z,19.11
2017-07-03T01:46:18.575Z,19.19
2017-07-03T01:46:59.112Z,19.28
2017-07-03T01:47:39.597Z,19.26
2017-07-03T01:48:20.132Z,19.28
2017-07-03T01:49:00.654Z,19.26
2017-07-03T01:49:41.075Z,19.21
2017-07-03T01:50:21.577Z,19.26
2017-07-03T01:51:02.071Z,19.28
2017-07-03T01:51:42.553Z,19.19
2017-07-03T01:52:23.033Z,19.22
2017-07-03T01:53:03.544Z,19.26
2017-07-03T01:53:44.096Z,19.18
2017-07-03T01:54:24.577Z,19.18
2017-07-03T01:55:05.092Z,19.19
2017-07-03T01:55:45.563Z,19.14
2017-07-03T01:56:26.068Z,19.16
2017-07-03T01:57:06.647Z,19.1
2017-07-03T01:57:47.106Z,19.11
2017-07-03T01:58:27.579Z,19.1
2017-07-03T01:59:08.074Z,19.04
2017-07-03T01:59:48.609Z,19.22
2017-07-03T02:00:29.153Z,19.14
2017-07-03T02:01:09.670Z,19.28
2017-07-03T02:01:50.161Z,19.25
2017-07-03T02:02:30.865Z,19.18
2017-07-03T02:04:28.623Z,19.25
2017-07-03T02:05:09.116Z,19.26
2017-07-03T02:05:49.627Z,19.25
2017-07-03T02:06:30.166Z,19.36
2017-07-03T02:07:10.729Z,19.25
2017-07-03T02:07:51.251Z,19.23
2017-07-03T02:08:31.776Z,19.25
2017-07-03T02:09:12.243Z,19.28
2017-07-03T02:09:52.790Z,19.14
2017-07-03T02:10:33.375Z,19.13
2017-07-03T02:11:13.817Z,19.26
2017-07-03T02:11:54.305Z,19.19
2017-07-03T02:12:34.864Z,19.23
2017-07-03T02:13:15.336Z,19.22
2017-07-03T02:13:55.812Z,19.13
2017-07-03T02:14:36.280Z,19.13
2017-07-03T02:15:16.785Z,19.16
2017-07-03T02:15:57.281Z,19.19
2017-07-03T02:16:37.734Z,19.21
2017-07-03T02:17:18.279Z,19.18
2017-07-03T02:17:58.758Z,19.18
2017-07-03T02:18:39.227Z,19.14
2017-07-03T02:19:19.697Z,19.18
2017-07-03T02:20:00.183Z,19.04
2017-07-03T02:20:40.678Z,19.08
2017-07-03T02:21:21.185Z,19.07
2017-07-03T02:22:01.673Z,18.9
2017-07-03T02:22:42.169Z,18.91
2017-07-03T02:23:22.642Z,18.8
2017-07-03T02:24:03.162Z,18.81
2017-07-03T02:24:43.663Z,18.8
2017-07-03T02:25:24.178Z,18.95
2017-07-03T02:26:04.686Z,19
2017-07-03T02:26:45.143Z,18.95
2017-07-03T02:27:25.692Z,19.04
2017-07-03T02:28:06.175Z,19
2017-07-03T02:28:46.687Z,18.99
2017-07-03T02:29:27.128Z,18.95
2017-07-03T02:30:07.650Z,18.99
2017-07-03T02:30:48.122Z,18.98
2017-07-03T02:31:28.634Z,18.94
2017-07-03T02:32:09.141Z,18.95
2017-07-03T02:32:49.739Z,18.95
2017-07-03T02:33:30.434Z,18.91
2017-07-03T02:34:10.896Z,18.94
2017-07-03T02:34:51.435Z,18.84
2017-07-03T02:35:31.921Z,18.88
2017-07-03T02:36:12.483Z,18.87
2017-07-03T02:36:52.925Z,18.81
2017-07-03T02:37:33.441Z,18.75
2017-07-03T02:38:13.912Z,18.82
2017-07-03T02:38:54.450Z,18.8
2017-07-03T02:39:34.897Z,18.9
2017-07-03T02:40:15.405Z,18.9
2017-07-03T02:40:55.917Z,18.92
2017-07-03T02:41:36.440Z,18.99
2017-07-03T02:42:16.904Z,18.99
2017-07-03T02:42:57.417Z,18.99
2017-07-03T02:43:37.917Z,18.99
2017-07-03T02:44:18.441Z,18.9
2017-07-03T02:44:58.947Z,19
2017-07-03T02:45:39.419Z,18.92
2017-07-03T02:46:20.026Z,18.9
2017-07-03T02:47:00.506Z,18.94
2017-07-03T02:47:41.029Z,18.98
2017-07-03T02:48:21.476Z,18.95
2017-07-03T02:49:01.960Z,18.94
2017-07-03T02:49:42.474Z,18.87
2017-07-03T02:50:22.985Z,18.78
2017-07-03T02:51:03.482Z,18.8
2017-07-03T02:51:43.972Z,18.85
2017-07-03T02:52:24.583Z,18.73
2017-07-03T02:53:05.136Z,18.84
2017-07-03T02:53:45.635Z,18.88
2017-07-03T02:54:26.115Z,18.87
2017-07-03T02:55:06.765Z,18.82
2017-07-03T02:55:47.095Z,18.9
2017-07-03T02:56:27.618Z,18.91
2017-07-03T02:57:08.086Z,18.92
2017-07-03T02:57:48.570Z,18.92
2017-07-03T02:58:29.069Z,18.94
2017-07-03T02:59:09.538Z,19
2017-07-03T02:59:50.027Z,19
2017-07-03T03:00:30.584Z,19.13
2017-07-03T03:01:11.014Z,19.02
2017-07-03T03:01:51.527Z,19
2017-07-03T03:02:32.005Z,19.1
2017-07-03T03:03:12.553Z,19.16
2017-07-03T03:03:53.011Z,19.19
2017-07-03T03:04:33.487Z,19.18
2017-07-03T03:05:13.985Z,19.28
2017-07-03T03:05:54.475Z,19.16
2017-07-03T03:06:34.984Z,19.16
2017-07-03T03:07:15.503Z,19.16
2017-07-03T03:07:56.038Z,19.11
2017-07-03T03:08:36.502Z,19.14
2017-07-03T03:09:17.028Z,19.16
2017-07-03T03:09:57.699Z,19.06
2017-07-03T03:10:38.199Z,19
2017-07-03T03:11:18.824Z,19
2017-07-03T03:11:59.311Z,19.04
2017-07-03T03:12:39.789Z,19.02
2017-07-03T03:13:20.308Z,19.02
2017-07-03T03:14:00.814Z,19.07
2017-07-03T03:14:41.282Z,19.06
2017-07-03T03:15:21.772Z,19.02
2017-07-03T03:16:02.307Z,19.06
2017-07-03T03:16:42.795Z,19.07
2017-07-03T03:17:23.287Z,19.1
2017-07-03T03:18:03.822Z,19.21
2017-07-03T03:18:44.326Z,19.07
2017-07-03T03:19:24.784Z,19.08
2017-07-03T03:20:05.295Z,19.07
2017-07-03T03:20:45.769Z,19.02
2017-07-03T03:21:26.262Z,19.07
2017-07-03T03:22:06.741Z,19.02
2017-07-03T03:22:47.255Z,19.18
2017-07-03T03:23:27.763Z,19.06
2017-07-03T03:24:08.254Z,19.02
2017-07-03T03:24:48.832Z,19.11
2017-07-03T03:25:29.294Z,19.16
2017-07-03T03:26:09.914Z,19.11
2017-07-03T03:26:50.345Z,19.07
2017-07-03T03:27:30.875Z,19.11
2017-07-03T03:28:11.347Z,19.1
2017-07-03T03:28:51.872Z,19.07
2017-07-03T03:29:32.315Z,19.04
2017-07-03T03:30:12.889Z,18.98
2017-07-03T03:30:53.390Z,19.11
2017-07-03T03:31:33.876Z,19.11
2017-07-03T03:32:14.351Z,19.06
2017-07-03T03:32:54.835Z,19.07
2017-07-03T03:33:35.354Z,19.1
2017-07-03T03:34:15.930Z,19.16
2017-07-03T03:34:56.417Z,19.23
2017-07-03T03:35:37.003Z,19.14
2017-07-03T03:36:17.474Z,19.22
2017-07-03T03:36:57.996Z,19.23
2017-07-03T03:37:38.511Z,19.26
2017-07-03T03:38:19.025Z,19.11
2017-07-03T03:38:59.523Z,19.1
2017-07-03T03:39:40.061Z,19.14
2017-07-03T03:40:20.543Z,19.16
2017-07-03T03:41:00.980Z,19.1
2017-07-03T03:41:41.488Z,19.04
2017-07-03T03:42:21.983Z,19.13
2017-07-03T03:43:02.496Z,19
2017-07-03T03:43:42.976Z,19.07
2017-07-03T03:44:23.480Z,19.02
2017-07-03T03:45:04.137Z,19.02
2017-07-03T03:45:44.675Z,19.02
2017-07-03T03:46:25.201Z,19
2017-07-03T03:47:05.678Z,19.06
2017-07-03T03:47:46.141Z,19.02
2017-07-03T03:48:26.664Z,18.91
2017-07-03T03:49:07.169Z,19.02
2017-07-03T03:49:47.647Z,19.07
2017-07-03T03:50:28.749Z,18.98
2017-07-03T03:51:09.241Z,19.02
2017-07-03T03:51:49.749Z,18.99
2017-07-03T03:52:30.232Z,19
2017-07-03T03:53:10.747Z,19.07
2017-07-03T03:53:51.227Z,18.95
2017-07-03T03:54:31.709Z,19.1
2017-07-03T03:55:12.223Z,18.99
2017-07-03T03:55:52.717Z,18.91
2017-07-03T03:56:33.232Z,19.04
2017-07-03T03:58:46.558Z,19.08
2017-07-03T03:59:27.083Z,19
2017-07-03T04:00:07.705Z,19
2017-07-03T04:00:48.230Z,19.04
2017-07-03T04:01:28.768Z,18.99
2017-07-03T04:02:09.253Z,19.06
2017-07-03T04:02:49.821Z,19.06
2017-07-03T04:03:30.276Z,19.14
2017-07-03T04:04:10.966Z,19.14
2017-07-03T04:04:51.428Z,19.18
2017-07-03T04:05:31.926Z,19.16
2017-07-03T04:06:12.416Z,19.19
2017-07-03T04:06:52.947Z,19.25
2017-07-03T04:07:33.448Z,19.14
2017-07-03T04:08:13.943Z,19.18
2017-07-03T04:08:54.482Z,19.26
2017-07-03T04:10:42.580Z,19.31
2017-07-03T04:11:23.102Z,19.25
2017-07-03T04:12:03.625Z,19.11
2017-07-03T04:12:44.135Z,19.08
2017-07-03T04:13:24.658Z,19.06
2017-07-03T04:14:05.126Z,19.18
2017-07-03T04:14:45.647Z,19.16
2017-07-03T04:15:26.140Z,19.13
2017-07-03T04:16:06.680Z,19.26
2017-07-03T04:16:47.196Z,19.22
2017-07-03T04:18:40.873Z,19.31
2017-07-03T04:19:21.385Z,19.19
2017-07-03T04:20:01.924Z,19.26
2017-07-03T04:20:42.504Z,19.18
2017-07-03T04:21:23.075Z,19.14
2017-07-03T04:22:03.571Z,19.14
2017-07-03T04:22:44.004Z,19.21
2017-07-03T04:23:24.487Z,19.28
2017-07-03T04:24:05.010Z,19.28
2017-07-03T04:24:45.507Z,19.25
2017-07-03T04:25:26.079Z,19.23
2017-07-03T04:26:06.624Z,19.33
2017-07-03T04:26:47.132Z,19.29
2017-07-03T04:27:27.583Z,19.32
2017-07-03T04:28:08.074Z,19.37
2017-07-03T04:28:48.582Z,19.36
2017-07-03T04:29:29.059Z,19.39
2017-07-03T04:30:09.582Z,19.41
2017-07-03T04:30:50.085Z,19.43
2017-07-03T04:31:30.558Z,19.39
2017-07-03T04:32:11.090Z,19.43
2017-07-03T04:32:51.514Z,19.36
2017-07-03T04:33:32.010Z,19.29
2017-07-03T04:34:12.536Z,19.33
2017-07-03T04:34:53.054Z,19.4
2017-07-03T04:35:33.517Z,19.41
2017-07-03T04:36:14.012Z,19.32
2017-07-03T04:36:54.476Z,19.31
2017-07-03T04:37:34.983Z,19.32
2017-07-03T04:38:15.426Z,19.29
2017-07-03T04:38:56.181Z,19.32
2017-07-03T04:39:36.834Z,19.33
2017-07-03T04:40:17.395Z,19.41
2017-07-03T04:40:57.839Z,19.31
2017-07-03T04:41:38.430Z,19.31
2017-07-03T04:42:18.962Z,19.33
2017-07-03T04:42:59.586Z,19.37
2017-07-03T04:43:40.320Z,19.4
2017-07-03T04:44:20.741Z,19.37
2017-07-03T04:45:01.236Z,19.44
2017-07-03T04:45:41.731Z,19.43
2017-07-03T04:46:22.292Z,19.44
2017-07-03T04:47:02.771Z,19.44
2017-07-03T04:47:43.431Z,19.48
2017-07-03T04:48:23.939Z,19.51
2017-07-03T04:49:04.472Z,19.54
2017-07-03T04:49:44.980Z,19.51
2017-07-03T04:50:25.476Z,19.55
2017-07-03T04:51:06.014Z,19.43
2017-07-03T04:51:46.534Z,19.47
2017-07-03T04:52:26.998Z,19.54
2017-07-03T04:53:07.564Z,19.62
2017-07-03T04:53:48.065Z,19.61
2017-07-03T04:54:28.527Z,19.54
2017-07-03T04:55:09.028Z,19.55
2017-07-03T04:55:49.522Z,19.65
2017-07-03T04:56:30.022Z,19.63
2017-07-03T04:57:10.633Z,19.66
2017-07-03T04:57:51.104Z,19.63
2017-07-03T04:58:31.624Z,19.78
2017-07-03T04:59:12.112Z,19.73
2017-07-03T04:59:52.584Z,19.65
2017-07-03T05:00:33.092Z,19.73
2017-07-03T05:01:13.615Z,19.69
2017-07-03T05:01:54.151Z,19.61
2017-07-03T05:02:34.589Z,19.59
2017-07-03T05:03:15.164Z,19.55
2017-07-03T05:03:55.679Z,19.61
2017-07-03T05:04:36.205Z,19.58
2017-07-03T05:05:16.731Z,19.47
2017-07-03T05:05:57.201Z,19.39
2017-07-03T05:06:37.702Z,19.47
2017-07-03T05:07:18.251Z,19.47
2017-07-03T05:07:58.773Z,19.48
2017-07-03T05:08:39.281Z,19.46
2017-07-03T05:09:19.766Z,19.44
2017-07-03T05:10:00.236Z,19.41
2017-07-03T05:10:40.762Z,19.55
2017-07-03T05:11:21.266Z,19.56
2017-07-03T05:12:01.770Z,19.5
2017-07-03T05:12:42.230Z,19.63
2017-07-03T05:13:22.743Z,19.51
2017-07-03T05:14:03.235Z,19.62
2017-07-03T05:14:43.768Z,19.62
2017-07-03T05:15:24.308Z,19.54
2017-07-03T05:16:04.774Z,19.62
2017-07-03T05:16:45.212Z,19.63
2017-07-03T05:17:25.744Z,19.58
2017-07-03T05:18:06.254Z,19.66
2017-07-03T05:18:46.795Z,19.61
2017-07-03T05:19:27.233Z,19.65
2017-07-03T05:20:07.756Z,19.73
2017-07-03T05:20:48.299Z,19.74
2017-07-03T05:21:28.795Z,19.78
2017-07-03T05:22:09.262Z,19.84
2017-07-03T05:22:49.758Z,19.96
2017-07-03T05:23:30.218Z,20.02
2017-07-03T05:24:10.758Z,20.05
2017-07-03T05:24:51.331Z,20.2
2017-07-03T05:25:31.817Z,20.31
2017-07-03T05:26:12.328Z,20.38
2017-07-03T05:26:52.808Z,20.55
2017-07-03T05:27:33.293Z,20.62
2017-07-03T05:28:13.821Z,20.84
2017-07-03T05:28:54.289Z,21.01
2017-07-03T05:29:34.839Z,21.01
2017-07-03T05:30:15.310Z,21.21
2017-07-03T05:30:55.792Z,21.06
2017-07-03T05:31:36.290Z,21.07
2017-07-03T05:32:16.817Z,21.1
2017-07-03T05:32:57.301Z,21.16
2017-07-03T05:33:37.946Z,21.24
2017-07-03T05:34:18.413Z,21.37
2017-07-03T05:34:58.926Z,21.42
2017-07-03T05:35:39.436Z,21.5
2017-07-03T05:36:19.916Z,21.58
2017-07-03T05:37:00.441Z,21.64
2017-07-03T05:37:40.940Z,21.72
2017-07-03T05:38:21.406Z,21.74
2017-07-03T05:39:01.942Z,21.77
2017-07-03T05:39:42.429Z,21.79
2017-07-03T05:40:22.975Z,21.83
2017-07-03T05:41:03.449Z,21.98
2017-07-03T05:41:43.985Z,21.99
2017-07-03T05:42:24.425Z,22.03
2017-07-03T05:43:04.968Z,22.2
2017-07-03T05:43:45.416Z,22.33
2017-07-03T05:44:25.927Z,22.45
2017-07-03T05:45:06.421Z,22.43
2017-07-03T05:45:47.007Z,22.27
2017-07-03T05:46:27.611Z,22.28
2017-07-03T05:47:08.127Z,22.21
2017-07-03T05:47:48.581Z,22
2017-07-03T05:48:29.105Z,21.92
2017-07-03T05:49:09.625Z,21.86
2017-07-03T05:49:50.137Z,21.69
2017-07-03T05:50:30.673Z,21.77
2017-07-03T05:51:11.130Z,21.69
2017-07-03T05:51:51.637Z,21.67
2017-07-03T05:52:32.353Z,21.54
2017-07-03T05:53:12.971Z,21.52
2017-07-03T05:53:53.434Z,21.46
2017-07-03T05:54:34.064Z,21.34
2017-07-03T05:55:14.459Z,21.27
2017-07-03T05:55:54.989Z,21.27
2017-07-03T05:56:35.563Z,21.13
2017-07-03T05:57:16.028Z,21.16
2017-07-03T05:57:56.649Z,21.13
2017-07-03T05:58:37.104Z,21.14
2017-07-03T05:59:17.636Z,21.1
2017-07-03T05:59:58.130Z,21.19
2017-07-03T06:00:38.637Z,21.13
2017-07-03T06:01:19.286Z,21.14
2017-07-03T06:01:59.750Z,21.09
2017-07-03T06:02:40.347Z,21.16
2017-07-03T06:03:20.801Z,21.28
2017-07-03T06:04:01.354Z,21.27
2017-07-03T06:04:41.828Z,21.37
2017-07-03T06:05:22.283Z,21.32
2017-07-03T06:06:03.113Z,21.31
2017-07-03T06:06:43.591Z,21.27
2017-07-03T06:07:24.070Z,21.27
2017-07-03T06:08:04.564Z,21.28
2017-07-03T06:08:45.263Z,21.24
2017-07-03T06:09:25.678Z,21.13
2017-07-03T06:10:06.215Z,21.25
2017-07-03T06:10:47.004Z,21.34
2017-07-03T06:11:27.510Z,21.31
2017-07-03T06:12:08.115Z,21.24
2017-07-03T06:12:49.282Z,21.31
2017-07-03T06:13:29.736Z,21.31
2017-07-03T06:14:10.371Z,21.4
2017-07-03T06:14:50.754Z,21.47
2017-07-03T06:15:31.324Z,21.4
2017-07-03T06:16:11.821Z,21.5
2017-07-03T06:16:52.382Z,21.5
2017-07-03T06:17:32.845Z,21.58
2017-07-03T06:18:13.494Z,21.69
2017-07-03T06:18:54.079Z,21.65
2017-07-03T06:19:34.686Z,21.75
2017-07-03T06:20:15.200Z,21.79
2017-07-03T06:20:56.103Z,21.86
2017-07-03T06:21:36.640Z,22
2017-07-03T06:22:17.125Z,21.92
2017-07-03T06:22:57.624Z,21.99
2017-07-03T06:23:38.287Z,21.8
2017-07-03T06:24:18.770Z,21.86
2017-07-03T06:24:59.285Z,21.94
2017-07-03T06:25:39.732Z,21.98
2017-07-03T06:26:20.869Z,22.03
2017-07-03T06:27:01.375Z,21.92
2017-07-03T06:27:41.855Z,21.88
2017-07-03T06:28:23.333Z,21.86
2017-07-03T06:29:03.820Z,21.99
2017-07-03T06:29:44.285Z,21.94
2017-07-03T06:30:24.895Z,22.03
2017-07-03T06:31:05.338Z,22.2
2017-07-03T06:31:45.852Z,22.2
2017-07-03T06:32:26.331Z,22.15
2017-07-03T06:33:06.811Z,22.2
2017-07-03T06:33:47.369Z,22.21
2017-07-03T06:34:28.154Z,22.25
2017-07-03T06:35:08.606Z,22.33
2017-07-03T06:35:49.126Z,22.18
2017-07-03T06:36:29.597Z,22.2
2017-07-03T06:37:10.096Z,22.22
2017-07-03T06:37:50.594Z,22.25
2017-07-03T06:38:31.101Z,22.28
2017-07-03T06:39:11.691Z,22.27
2017-07-03T06:39:52.171Z,22.31
2017-07-03T06:40:32.748Z,22.22
2017-07-03T06:41:13.274Z,22.17
2017-07-03T06:41:53.989Z,22.27
2017-07-03T06:42:34.704Z,22.2
2017-07-03T06:44:17.243Z,22.2
2017-07-03T06:44:57.622Z,22.07
2017-07-03T06:45:38.185Z,22.15
2017-07-03T06:46:18.853Z,22.12
2017-07-03T06:46:59.407Z,22.05
2017-07-03T06:47:40.168Z,22.06
2017-07-03T06:48:20.697Z,22.02
2017-07-03T06:49:01.266Z,21.92
2017-07-03T06:49:41.748Z,21.96
2017-07-03T06:50:22.289Z,21.96
2017-07-03T06:51:02.832Z,21.94
2017-07-03T06:51:43.346Z,21.91
2017-07-03T06:52:24.728Z,21.92
2017-07-03T06:53:04.671Z,22
2017-07-03T06:53:45.206Z,21.94
2017-07-03T06:54:25.726Z,21.88
2017-07-03T06:55:06.240Z,22
2017-07-03T06:55:46.795Z,21.92
2017-07-03T06:56:27.225Z,21.99
2017-07-03T06:57:08.035Z,21.96
2017-07-03T06:57:48.595Z,21.91
2017-07-03T06:58:29.038Z,22
2017-07-03T06:59:09.528Z,22.05
2017-07-03T06:59:50.036Z,22.03
2017-07-03T07:00:30.656Z,21.99
2017-07-03T07:01:11.182Z,21.8
2017-07-03T07:01:51.707Z,21.79
2017-07-03T07:02:32.325Z,21.88
2017-07-03T07:03:12.861Z,21.9
2017-07-03T07:03:53.355Z,21.86
2017-07-03T07:04:33.883Z,21.9
2017-07-03T07:05:14.413Z,22
2017-07-03T07:05:54.938Z,22
2017-07-03T07:06:35.460Z,22.1
2017-07-03T07:07:16.168Z,22.12
2017-07-03T07:07:57.000Z,22.25
2017-07-03T07:08:37.483Z,22.31
2017-07-03T07:09:18.032Z,22.46
2017-07-03T07:09:58.480Z,22.55
2017-07-03T07:10:39.608Z,22.55
2017-07-03T07:11:20.072Z,22.61
2017-07-03T07:12:00.564Z,22.7
2017-07-03T07:12:41.155Z,22.67
2017-07-03T07:13:21.650Z,22.77
2017-07-03T07:14:02.148Z,22.86
2017-07-03T07:14:42.669Z,22.91
2017-07-03T07:15:23.802Z,22.98
2017-07-03T07:16:03.670Z,23.01
2017-07-03T07:16:44.415Z,23.09
2017-07-03T07:17:25.880Z,23.22
2017-07-03T07:18:06.296Z,23.23
2017-07-03T07:18:46.820Z,23.32
2017-07-03T07:19:27.325Z,23.33
2017-07-03T07:20:07.850Z,23.27
2017-07-03T07:20:48.294Z,23.17
2017-07-03T07:21:28.821Z,23.07
2017-07-03T07:22:09.379Z,23.13
2017-07-03T07:22:50.429Z,23.33
2017-07-03T07:23:30.964Z,23.31
2017-07-03T07:24:11.413Z,23.39
2017-07-03T07:24:51.975Z,23.39
2017-07-03T07:25:32.455Z,23.4
2017-07-03T07:26:13.010Z,23.42
2017-07-03T07:26:53.479Z,23.33
2017-07-03T07:27:34.082Z,23.39
2017-07-03T07:28:14.606Z,23.5
2017-07-03T07:28:55.075Z,23.42
2017-07-03T07:29:35.580Z,23.28
2017-07-03T07:30:16.085Z,23.23
2017-07-03T07:30:56.605Z,23.28
2017-07-03T07:31:37.083Z,23.43
2017-07-03T07:32:17.612Z,23.25
2017-07-03T07:32:58.150Z,23.23
2017-07-03T07:33:38.600Z,23.36
2017-07-03T07:35:27.015Z,23.38
2017-07-03T07:36:07.531Z,23.28
2017-07-03T07:36:48.646Z,23.25
2017-07-03T07:37:29.166Z,23.27
2017-07-03T07:38:09.690Z,23.22
2017-07-03T07:38:50.219Z,23.2
2017-07-03T07:39:30.825Z,23.12
2017-07-03T07:40:11.605Z,22.77
2017-07-03T07:40:52.123Z,23.02
2017-07-03T07:41:32.668Z,22.98
2017-07-03T07:42:14.045Z,23.1
2017-07-03T07:42:55.132Z,23.12
2017-07-03T07:43:35.589Z,23.15
2017-07-03T07:44:16.110Z,23
2017-07-03T07:44:56.617Z,22.73
2017-07-03T07:45:37.102Z,22.61
2017-07-03T07:46:17.633Z,22.76
2017-07-03T07:46:58.180Z,22.62
2017-07-03T07:47:39.282Z,22.61
2017-07-03T07:48:19.795Z,22.64
2017-07-03T07:49:01.200Z,22.55
2017-07-03T07:49:41.674Z,22.67
2017-07-03T07:50:22.234Z,22.67
2017-07-03T07:51:02.886Z,22.57
2017-07-03T07:51:43.322Z,22.62
2017-07-03T07:52:23.885Z,22.54
2017-07-03T07:53:04.394Z,22.52
2017-07-03T07:53:47.789Z,22.61
2017-07-03T07:54:28.296Z,22.7
2017-07-03T07:55:08.786Z,22.67
2017-07-03T07:55:49.259Z,22.68
2017-07-03T07:57:37.384Z,22.92
2017-07-03T07:58:18.868Z,23
2017-07-03T08:00:15.852Z,23.38
2017-07-03T08:00:56.369Z,23.46
2017-07-03T08:01:36.885Z,23.36
2017-07-03T08:02:17.400Z,23.2
2017-07-03T08:02:57.883Z,23.16
2017-07-03T08:03:38.400Z,23.25
2017-07-03T08:04:18.920Z,23.28
2017-07-03T08:04:59.428Z,23.2
2017-07-03T08:05:40.086Z,23.1
2017-07-03T08:06:20.469Z,23.15
2017-07-03T08:07:00.972Z,23.12
2017-07-03T08:07:41.460Z,23.17
2017-07-03T08:08:21.978Z,23.28
2017-07-03T08:09:02.498Z,23.27
2017-07-03T08:09:42.964Z,23.39
2017-07-03T08:10:23.496Z,23.4
2017-07-03T08:11:03.979Z,23.42
2017-07-03T08:11:44.472Z,23.6
2017-07-03T08:12:24.997Z,23.55
2017-07-03T08:13:05.806Z,23.57
2017-07-03T08:13:46.245Z,23.63
2017-07-03T08:14:26.679Z,23.69
2017-07-03T08:15:07.258Z,23.72
2017-07-03T08:15:47.782Z,23.72
2017-07-03T08:16:28.177Z,23.69
2017-07-03T08:17:08.655Z,23.72
2017-07-03T08:17:49.200Z,23.85
2017-07-03T08:18:29.693Z,23.9
2017-07-03T08:19:10.182Z,23.98
2017-07-03T08:19:50.719Z,24
2017-07-03T08:20:31.184Z,24.03
2017-07-03T08:21:11.747Z,24.08
2017-07-03T08:21:52.243Z,23.95
2017-07-03T08:22:32.741Z,23.9
2017-07-03T08:23:13.229Z,23.76
2017-07-03T08:23:53.721Z,23.79
2017-07-03T08:24:34.223Z,23.91
2017-07-03T08:25:14.742Z,24.08
2017-07-03T08:25:55.335Z,24.16
2017-07-03T08:26:35.815Z,24.28
2017-07-03T08:27:16.356Z,24.34
2017-07-03T08:27:57.091Z,24.28
2017-07-03T08:28:37.571Z,24.34
2017-07-03T08:29:18.031Z,24.45
2017-07-03T08:29:58.552Z,24.45
2017-07-03T08:30:39.047Z,24.42
2017-07-03T08:31:19.533Z,24.5
2017-07-03T08:32:00.039Z,24.47
2017-07-03T08:32:40.559Z,24.49
2017-07-03T08:33:21.050Z,24.31
2017-07-03T08:34:01.541Z,24.35
2017-07-03T08:34:42.016Z,24.5
2017-07-03T08:35:22.551Z,24.46
2017-07-03T08:36:03.028Z,24.43
2017-07-03T08:36:43.509Z,24.46
2017-07-03T08:37:24.011Z,24.47
2017-07-03T08:38:04.518Z,24.42
2017-07-03T08:38:45.031Z,24.4
2017-07-03T08:39:25.571Z,24.47
2017-07-03T08:40:06.105Z,24.5
2017-07-03T08:40:46.591Z,24.39
2017-07-03T08:41:27.063Z,24.35
2017-07-03T08:42:07.559Z,24.3
2017-07-03T08:42:48.093Z,24.37
2017-07-03T08:43:28.583Z,24.31
2017-07-03T08:44:09.066Z,24.34
2017-07-03T08:44:49.550Z,24.28
2017-07-03T08:45:30.169Z,24.27
2017-07-03T08:46:10.729Z,24.25
2017-07-03T08:46:51.334Z,24.2
2017-07-03T08:47:31.863Z,24.24
2017-07-03T08:48:12.355Z,24.21
2017-07-03T08:48:52.880Z,24.21
2017-07-03T08:49:33.331Z,24.21
2017-07-03T08:50:13.828Z,24.25
2017-07-03T08:50:54.350Z,24.28
2017-07-03T08:51:34.814Z,24.22
2017-07-03T08:52:15.362Z,24.18
2017-07-03T08:52:55.829Z,24.22
2017-07-03T08:53:36.344Z,24.28
2017-07-03T08:54:16.812Z,24.32
2017-07-03T08:54:57.317Z,24.25
2017-07-03T08:55:37.826Z,24.27